sensor_id;sensor_type;location;lat;lon;timestamp;P1;durP1;ratioP1;P2;durP2;ratioP2
25567;SDS011;13455;51.480;7.594;2022-08-19T00:00:07;21.63;;;17.42;;
25567;SDS011;13455;51.480;7.594;2022-08-19T00:02:33;19.77;;;17.23;;
25567;SDS011;13455;51.480;7.594;2022-08-19T00:05:00;20.63;;;17.97;;
25567;SDS011;13455;51.480;7.594;2022-08-19T00:07:26;21.52;;;18.33;;
25567;SDS011;13455;51.480;7.594;2022-08-19T00:09:52;25.33;;;18.60;;
25567;SDS011;13455;51.480;7.594;2022-08-19T00:12:18;22.23;;;18.10;;
25567;SDS011;13455;51.480;7.594;2022-08-19T00:14:44;22.17;;;17.48;;
25567;SDS011;13455;51.480;7.594;2022-08-19T00:17:11;19.50;;;16.98;;
25567;SDS011;13455;51.480;7.594;2022-08-19T00:19:37;22.02;;;17.77;;
25567;SDS011;13455;51.480;7.594;2022-08-19T00:22:03;21.67;;;18.07;;
25567;SDS011;13455;51.480;7.594;2022-08-19T00:24:30;20.73;;;17.75;;
25567;SDS011;13455;51.480;7.594;2022-08-19T00:26:57;21.73;;;17.83;;
25567;SDS011;13455;51.480;7.594;2022-08-19T00:29:24;22.20;;;19.50;;
25567;SDS011;13455;51.480;7.594;2022-08-19T00:34:38;26.13;;;21.40;;
25567;SDS011;13455;51.480;7.594;2022-08-19T00:37:05;26.35;;;21.23;;
25567;SDS011;13455;51.480;7.594;2022-08-19T00:39:31;27.27;;;22.08;;
25567;SDS011;13455;51.480;7.594;2022-08-19T00:41:56;26.17;;;22.40;;
25567;SDS011;13455;51.480;7.594;2022-08-19T00:44:26;28.07;;;22.17;;
25567;SDS011;13455;51.480;7.594;2022-08-19T00:46:54;27.77;;;22.08;;
25567;SDS011;13455;51.480;7.594;2022-08-19T00:52:09;26.70;;;22.17;;
25567;SDS011;13455;51.480;7.594;2022-08-19T00:54:37;27.92;;;22.50;;
25567;SDS011;13455;51.480;7.594;2022-08-19T00:57:05;28.05;;;22.17;;
25567;SDS011;13455;51.480;7.594;2022-08-19T00:59:31;26.50;;;22.43;;
25567;SDS011;13455;51.480;7.594;2022-08-19T01:01:58;24.83;;;22.13;;
25567;SDS011;13455;51.480;7.594;2022-08-19T01:04:24;25.30;;;21.70;;
25567;SDS011;13455;51.480;7.594;2022-08-19T01:06:50;26.43;;;21.70;;
25567;SDS011;13455;51.480;7.594;2022-08-19T01:09:16;25.35;;;20.85;;
25567;SDS011;13455;51.480;7.594;2022-08-19T01:11:43;23.55;;;20.70;;
25567;SDS011;13455;51.480;7.594;2022-08-19T01:14:10;22.90;;;19.67;;
25567;SDS011;13455;51.480;7.594;2022-08-19T01:16:37;22.88;;;19.85;;
25567;SDS011;13455;51.480;7.594;2022-08-19T01:19:09;23.05;;;18.95;;
25567;SDS011;13455;51.480;7.594;2022-08-19T01:21:44;24.00;;;20.20;;
25567;SDS011;13455;51.480;7.594;2022-08-19T01:24:13;25.20;;;21.90;;
25567;SDS011;13455;51.480;7.594;2022-08-19T01:26:40;24.17;;;21.58;;
25567;SDS011;13455;51.480;7.594;2022-08-19T01:29:08;25.83;;;21.83;;
25567;SDS011;13455;51.480;7.594;2022-08-19T01:31:34;26.02;;;21.60;;
25567;SDS011;13455;51.480;7.594;2022-08-19T01:34:01;27.70;;;22.80;;
25567;SDS011;13455;51.480;7.594;2022-08-19T01:36:29;27.70;;;22.65;;
25567;SDS011;13455;51.480;7.594;2022-08-19T01:38:56;28.40;;;22.67;;
25567;SDS011;13455;51.480;7.594;2022-08-19T01:41:23;27.53;;;23.40;;
25567;SDS011;13455;51.480;7.594;2022-08-19T01:43:50;29.95;;;24.00;;
25567;SDS011;13455;51.480;7.594;2022-08-19T01:46:17;28.73;;;23.48;;
25567;SDS011;13455;51.480;7.594;2022-08-19T01:48:43;27.90;;;23.63;;
25567;SDS011;13455;51.480;7.594;2022-08-19T01:51:09;26.70;;;23.80;;
25567;SDS011;13455;51.480;7.594;2022-08-19T01:53:36;28.60;;;24.10;;
25567;SDS011;13455;51.480;7.594;2022-08-19T01:56:02;27.48;;;23.27;;
25567;SDS011;13455;51.480;7.594;2022-08-19T01:58:30;26.83;;;23.23;;
25567;SDS011;13455;51.480;7.594;2022-08-19T02:00:58;27.83;;;23.58;;
25567;SDS011;13455;51.480;7.594;2022-08-19T02:03:24;27.67;;;24.10;;
25567;SDS011;13455;51.480;7.594;2022-08-19T02:05:54;28.07;;;24.60;;
25567;SDS011;13455;51.480;7.594;2022-08-19T02:08:20;31.55;;;25.25;;
25567;SDS011;13455;51.480;7.594;2022-08-19T02:10:46;28.15;;;24.98;;
25567;SDS011;13455;51.480;7.594;2022-08-19T02:13:12;29.58;;;25.48;;
25567;SDS011;13455;51.480;7.594;2022-08-19T02:15:38;28.17;;;24.23;;
25567;SDS011;13455;51.480;7.594;2022-08-19T02:18:05;28.55;;;24.58;;
25567;SDS011;13455;51.480;7.594;2022-08-19T02:20:32;29.08;;;24.40;;
25567;SDS011;13455;51.480;7.594;2022-08-19T02:22:58;28.63;;;25.00;;
25567;SDS011;13455;51.480;7.594;2022-08-19T02:25:26;30.70;;;24.73;;
25567;SDS011;13455;51.480;7.594;2022-08-19T02:27:52;29.83;;;24.75;;
25567;SDS011;13455;51.480;7.594;2022-08-19T02:30:18;29.23;;;24.57;;
25567;SDS011;13455;51.480;7.594;2022-08-19T02:32:44;27.67;;;24.40;;
25567;SDS011;13455;51.480;7.594;2022-08-19T02:35:13;28.40;;;24.13;;
25567;SDS011;13455;51.480;7.594;2022-08-19T02:37:39;32.22;;;24.50;;
25567;SDS011;13455;51.480;7.594;2022-08-19T02:40:24;32.38;;;25.20;;
25567;SDS011;13455;51.480;7.594;2022-08-19T02:42:51;30.15;;;25.70;;
25567;SDS011;13455;51.480;7.594;2022-08-19T02:45:16;31.63;;;25.35;;
25567;SDS011;13455;51.480;7.594;2022-08-19T02:47:42;31.05;;;26.02;;
25567;SDS011;13455;51.480;7.594;2022-08-19T02:50:08;29.20;;;24.23;;
25567;SDS011;13455;51.480;7.594;2022-08-19T02:52:34;33.05;;;26.10;;
25567;SDS011;13455;51.480;7.594;2022-08-19T02:55:00;31.50;;;25.40;;
25567;SDS011;13455;51.480;7.594;2022-08-19T02:57:26;33.75;;;26.55;;
25567;SDS011;13455;51.480;7.594;2022-08-19T02:59:52;36.33;;;26.33;;
25567;SDS011;13455;51.480;7.594;2022-08-19T03:02:18;30.10;;;26.45;;
25567;SDS011;13455;51.480;7.594;2022-08-19T03:04:44;31.20;;;26.73;;
25567;SDS011;13455;51.480;7.594;2022-08-19T03:07:13;33.08;;;26.77;;
25567;SDS011;13455;51.480;7.594;2022-08-19T03:09:39;33.55;;;27.35;;
25567;SDS011;13455;51.480;7.594;2022-08-19T03:12:05;32.45;;;27.63;;
25567;SDS011;13455;51.480;7.594;2022-08-19T03:14:31;35.20;;;28.75;;
25567;SDS011;13455;51.480;7.594;2022-08-19T03:16:58;37.38;;;28.17;;
25567;SDS011;13455;51.480;7.594;2022-08-19T03:19:24;34.70;;;28.40;;
25567;SDS011;13455;51.480;7.594;2022-08-19T03:21:51;33.22;;;26.48;;
25567;SDS011;13455;51.480;7.594;2022-08-19T03:24:17;35.08;;;27.42;;
25567;SDS011;13455;51.480;7.594;2022-08-19T03:26:48;32.85;;;26.63;;
25567;SDS011;13455;51.480;7.594;2022-08-19T03:29:16;32.53;;;26.93;;
25567;SDS011;13455;51.480;7.594;2022-08-19T03:31:43;33.07;;;26.90;;
25567;SDS011;13455;51.480;7.594;2022-08-19T03:34:10;32.78;;;25.52;;
25567;SDS011;13455;51.480;7.594;2022-08-19T03:36:38;32.88;;;25.92;;
25567;SDS011;13455;51.480;7.594;2022-08-19T03:39:04;32.10;;;26.00;;
25567;SDS011;13455;51.480;7.594;2022-08-19T03:41:31;29.15;;;24.90;;
25567;SDS011;13455;51.480;7.594;2022-08-19T03:44:01;31.20;;;25.20;;
25567;SDS011;13455;51.480;7.594;2022-08-19T03:46:28;31.42;;;25.83;;
25567;SDS011;13455;51.480;7.594;2022-08-19T03:48:56;33.47;;;25.98;;
25567;SDS011;13455;51.480;7.594;2022-08-19T03:53:52;31.63;;;26.17;;
25567;SDS011;13455;51.480;7.594;2022-08-19T03:56:19;30.92;;;26.10;;
25567;SDS011;13455;51.480;7.594;2022-08-19T03:58:45;33.50;;;26.10;;
25567;SDS011;13455;51.480;7.594;2022-08-19T04:01:12;31.30;;;25.90;;
25567;SDS011;13455;51.480;7.594;2022-08-19T04:03:43;29.92;;;25.58;;
25567;SDS011;13455;51.480;7.594;2022-08-19T04:08:43;32.43;;;26.73;;
25567;SDS011;13455;51.480;7.594;2022-08-19T04:11:11;32.33;;;26.20;;
25567;SDS011;13455;51.480;7.594;2022-08-19T04:13:42;31.33;;;26.45;;
25567;SDS011;13455;51.480;7.594;2022-08-19T04:16:09;33.95;;;26.88;;
25567;SDS011;13455;51.480;7.594;2022-08-19T04:18:35;32.63;;;25.50;;
25567;SDS011;13455;51.480;7.594;2022-08-19T04:21:03;31.48;;;25.83;;
25567;SDS011;13455;51.480;7.594;2022-08-19T04:23:29;31.50;;;25.65;;
25567;SDS011;13455;51.480;7.594;2022-08-19T04:25:56;31.00;;;25.30;;
25567;SDS011;13455;51.480;7.594;2022-08-19T04:28:22;31.20;;;25.38;;
25567;SDS011;13455;51.480;7.594;2022-08-19T04:30:49;35.80;;;26.67;;
25567;SDS011;13455;51.480;7.594;2022-08-19T04:33:17;29.90;;;25.20;;
25567;SDS011;13455;51.480;7.594;2022-08-19T04:35:47;30.27;;;25.35;;
25567;SDS011;13455;51.480;7.594;2022-08-19T04:38:15;31.98;;;24.48;;
25567;SDS011;13455;51.480;7.594;2022-08-19T04:40:58;34.08;;;24.98;;
25567;SDS011;13455;51.480;7.594;2022-08-19T04:43:43;36.60;;;25.08;;
25567;SDS011;13455;51.480;7.594;2022-08-19T04:46:14;34.17;;;25.80;;
25567;SDS011;13455;51.480;7.594;2022-08-19T04:48:41;36.63;;;27.70;;
25567;SDS011;13455;51.480;7.594;2022-08-19T04:51:09;35.70;;;27.48;;
25567;SDS011;13455;51.480;7.594;2022-08-19T04:53:45;32.90;;;27.00;;
25567;SDS011;13455;51.480;7.594;2022-08-19T04:56:18;34.63;;;26.13;;
25567;SDS011;13455;51.480;7.594;2022-08-19T04:58:50;31.38;;;25.08;;
25567;SDS011;13455;51.480;7.594;2022-08-19T05:01:24;33.78;;;25.52;;
25567;SDS011;13455;51.480;7.594;2022-08-19T05:03:57;33.22;;;25.60;;
25567;SDS011;13455;51.480;7.594;2022-08-19T05:06:36;34.67;;;25.40;;
25567;SDS011;13455;51.480;7.594;2022-08-19T05:09:05;35.30;;;25.30;;
25567;SDS011;13455;51.480;7.594;2022-08-19T05:11:43;30.23;;;23.60;;
25567;SDS011;13455;51.480;7.594;2022-08-19T05:14:17;29.15;;;23.00;;
25567;SDS011;13455;51.480;7.594;2022-08-19T05:16:49;29.20;;;23.25;;
25567;SDS011;13455;51.480;7.594;2022-08-19T05:19:21;28.42;;;22.65;;
25567;SDS011;13455;51.480;7.594;2022-08-19T05:22:11;28.38;;;22.60;;
25567;SDS011;13455;51.480;7.594;2022-08-19T05:25:08;28.50;;;23.05;;
25567;SDS011;13455;51.480;7.594;2022-08-19T05:27:44;31.75;;;23.20;;
25567;SDS011;13455;51.480;7.594;2022-08-19T05:30:19;29.60;;;24.52;;
25567;SDS011;13455;51.480;7.594;2022-08-19T05:32:54;32.05;;;24.25;;
25567;SDS011;13455;51.480;7.594;2022-08-19T05:35:29;34.78;;;25.95;;
25567;SDS011;13455;51.480;7.594;2022-08-19T05:38:01;37.80;;;26.55;;
25567;SDS011;13455;51.480;7.594;2022-08-19T05:40:37;42.58;;;27.08;;
25567;SDS011;13455;51.480;7.594;2022-08-19T05:43:14;39.40;;;25.77;;
25567;SDS011;13455;51.480;7.594;2022-08-19T05:45:48;37.08;;;26.38;;
25567;SDS011;13455;51.480;7.594;2022-08-19T05:48:20;35.50;;;25.27;;
25567;SDS011;13455;51.480;7.594;2022-08-19T05:50:51;35.40;;;26.23;;
25567;SDS011;13455;51.480;7.594;2022-08-19T05:53:23;38.00;;;26.15;;
25567;SDS011;13455;51.480;7.594;2022-08-19T05:55:52;39.95;;;27.67;;
25567;SDS011;13455;51.480;7.594;2022-08-19T05:58:21;42.97;;;29.65;;
25567;SDS011;13455;51.480;7.594;2022-08-19T06:00:52;51.80;;;35.08;;
25567;SDS011;13455;51.480;7.594;2022-08-19T06:03:29;52.95;;;35.03;;
25567;SDS011;13455;51.480;7.594;2022-08-19T06:05:58;57.60;;;38.47;;
25567;SDS011;13455;51.480;7.594;2022-08-19T06:08:28;59.33;;;39.08;;
25567;SDS011;13455;51.480;7.594;2022-08-19T06:10:55;68.33;;;46.00;;
25567;SDS011;13455;51.480;7.594;2022-08-19T06:13:21;65.53;;;45.50;;
25567;SDS011;13455;51.480;7.594;2022-08-19T06:15:50;62.78;;;43.58;;
25567;SDS011;13455;51.480;7.594;2022-08-19T06:18:16;58.30;;;36.83;;
25567;SDS011;13455;51.480;7.594;2022-08-19T06:20:50;50.20;;;33.13;;
25567;SDS011;13455;51.480;7.594;2022-08-19T06:23:16;45.08;;;30.15;;
25567;SDS011;13455;51.480;7.594;2022-08-19T06:25:45;42.10;;;29.15;;
25567;SDS011;13455;51.480;7.594;2022-08-19T06:28:11;41.20;;;28.70;;
25567;SDS011;13455;51.480;7.594;2022-08-19T06:30:36;39.30;;;28.43;;
25567;SDS011;13455;51.480;7.594;2022-08-19T06:33:02;40.03;;;28.20;;
25567;SDS011;13455;51.480;7.594;2022-08-19T06:35:28;39.33;;;28.53;;
25567;SDS011;13455;51.480;7.594;2022-08-19T06:37:54;39.00;;;27.98;;
25567;SDS011;13455;51.480;7.594;2022-08-19T06:40:20;39.88;;;26.58;;
25567;SDS011;13455;51.480;7.594;2022-08-19T06:42:46;38.92;;;26.02;;
25567;SDS011;13455;51.480;7.594;2022-08-19T06:45:13;32.95;;;24.75;;
25567;SDS011;13455;51.480;7.594;2022-08-19T06:47:39;30.58;;;23.92;;
25567;SDS011;13455;51.480;7.594;2022-08-19T06:50:10;31.63;;;24.17;;
25567;SDS011;13455;51.480;7.594;2022-08-19T06:52:37;33.53;;;23.83;;
25567;SDS011;13455;51.480;7.594;2022-08-19T06:55:04;32.93;;;24.50;;
25567;SDS011;13455;51.480;7.594;2022-08-19T06:57:30;29.75;;;23.75;;
25567;SDS011;13455;51.480;7.594;2022-08-19T06:59:57;32.63;;;22.98;;
25567;SDS011;13455;51.480;7.594;2022-08-19T07:02:25;29.65;;;23.13;;
25567;SDS011;13455;51.480;7.594;2022-08-19T07:04:51;27.05;;;21.95;;
25567;SDS011;13455;51.480;7.594;2022-08-19T07:07:18;26.83;;;22.43;;
25567;SDS011;13455;51.480;7.594;2022-08-19T07:09:45;29.00;;;22.35;;
25567;SDS011;13455;51.480;7.594;2022-08-19T07:12:11;29.20;;;22.10;;
25567;SDS011;13455;51.480;7.594;2022-08-19T07:14:40;26.33;;;20.88;;
25567;SDS011;13455;51.480;7.594;2022-08-19T07:17:07;26.50;;;19.80;;
25567;SDS011;13455;51.480;7.594;2022-08-19T07:19:36;24.10;;;19.33;;
25567;SDS011;13455;51.480;7.594;2022-08-19T07:22:04;25.38;;;19.73;;
25567;SDS011;13455;51.480;7.594;2022-08-19T07:24:31;26.98;;;19.13;;
25567;SDS011;13455;51.480;7.594;2022-08-19T07:26:58;27.35;;;19.40;;
25567;SDS011;13455;51.480;7.594;2022-08-19T07:29:27;26.60;;;19.92;;
25567;SDS011;13455;51.480;7.594;2022-08-19T07:31:56;26.10;;;19.48;;
25567;SDS011;13455;51.480;7.594;2022-08-19T07:34:23;26.10;;;19.67;;
25567;SDS011;13455;51.480;7.594;2022-08-19T07:36:50;27.95;;;19.60;;
25567;SDS011;13455;51.480;7.594;2022-08-19T07:39:18;24.08;;;18.17;;
25567;SDS011;13455;51.480;7.594;2022-08-19T07:41:46;26.42;;;18.17;;
25567;SDS011;13455;51.480;7.594;2022-08-19T07:44:16;26.30;;;18.30;;
25567;SDS011;13455;51.480;7.594;2022-08-19T07:46:49;25.27;;;17.33;;
25567;SDS011;13455;51.480;7.594;2022-08-19T07:49:18;28.98;;;17.63;;
25567;SDS011;13455;51.480;7.594;2022-08-19T07:52:05;26.70;;;16.88;;
25567;SDS011;13455;51.480;7.594;2022-08-19T07:54:37;22.08;;;15.40;;
25567;SDS011;13455;51.480;7.594;2022-08-19T07:57:07;21.65;;;15.40;;
25567;SDS011;13455;51.480;7.594;2022-08-19T07:59:33;24.03;;;14.13;;
25567;SDS011;13455;51.480;7.594;2022-08-19T08:01:59;20.50;;;12.70;;
25567;SDS011;13455;51.480;7.594;2022-08-19T08:04:27;18.73;;;13.13;;
25567;SDS011;13455;51.480;7.594;2022-08-19T08:07:12;16.73;;;12.60;;
25567;SDS011;13455;51.480;7.594;2022-08-19T08:09:57;17.85;;;12.50;;
25567;SDS011;13455;51.480;7.594;2022-08-19T08:12:26;14.13;;;10.93;;
25567;SDS011;13455;51.480;7.594;2022-08-19T08:14:56;16.75;;;11.40;;
25567;SDS011;13455;51.480;7.594;2022-08-19T08:17:23;18.05;;;11.43;;
25567;SDS011;13455;51.480;7.594;2022-08-19T08:19:49;16.38;;;11.15;;
25567;SDS011;13455;51.480;7.594;2022-08-19T08:22:17;21.73;;;10.90;;
25567;SDS011;13455;51.480;7.594;2022-08-19T08:27:38;18.08;;;10.90;;
25567;SDS011;13455;51.480;7.594;2022-08-19T08:30:08;15.95;;;11.13;;
25567;SDS011;13455;51.480;7.594;2022-08-19T08:32:36;14.40;;;10.50;;
25567;SDS011;13455;51.480;7.594;2022-08-19T08:35:03;19.33;;;11.53;;
25567;SDS011;13455;51.480;7.594;2022-08-19T08:37:29;16.33;;;10.98;;
25567;SDS011;13455;51.480;7.594;2022-08-19T08:39:55;16.92;;;11.85;;
25567;SDS011;13455;51.480;7.594;2022-08-19T08:42:27;18.13;;;10.97;;
25567;SDS011;13455;51.480;7.594;2022-08-19T08:44:59;18.33;;;11.30;;
25567;SDS011;13455;51.480;7.594;2022-08-19T08:47:28;15.68;;;10.77;;
25567;SDS011;13455;51.480;7.594;2022-08-19T08:50:02;15.35;;;11.13;;
25567;SDS011;13455;51.480;7.594;2022-08-19T08:52:53;15.97;;;11.40;;
25567;SDS011;13455;51.480;7.594;2022-08-19T08:55:28;17.00;;;10.65;;
25567;SDS011;13455;51.480;7.594;2022-08-19T08:57:59;16.60;;;11.80;;
25567;SDS011;13455;51.480;7.594;2022-08-19T09:00:27;18.97;;;10.90;;
25567;SDS011;13455;51.480;7.594;2022-08-19T09:02:56;17.00;;;10.57;;
25567;SDS011;13455;51.480;7.594;2022-08-19T09:05:30;18.70;;;12.07;;
25567;SDS011;13455;51.480;7.594;2022-08-19T09:11:20;18.92;;;11.13;;
25567;SDS011;13455;51.480;7.594;2022-08-19T09:16:56;19.50;;;10.93;;
25567;SDS011;13455;51.480;7.594;2022-08-19T09:19:22;16.65;;;11.15;;
25567;SDS011;13455;51.480;7.594;2022-08-19T09:21:51;14.00;;;10.02;;
25567;SDS011;13455;51.480;7.594;2022-08-19T09:24:17;16.25;;;10.93;;
25567;SDS011;13455;51.480;7.594;2022-08-19T09:26:43;15.32;;;10.55;;
25567;SDS011;13455;51.480;7.594;2022-08-19T09:29:10;13.18;;;8.50;;
25567;SDS011;13455;51.480;7.594;2022-08-19T09:31:36;12.05;;;8.32;;
25567;SDS011;13455;51.480;7.594;2022-08-19T09:34:02;17.65;;;8.32;;
25567;SDS011;13455;51.480;7.594;2022-08-19T09:36:29;23.08;;;8.85;;
25567;SDS011;13455;51.480;7.594;2022-08-19T09:39:00;18.00;;;8.20;;
25567;SDS011;13455;51.480;7.594;2022-08-19T09:41:28;8.52;;;7.22;;
25567;SDS011;13455;51.480;7.594;2022-08-19T09:43:54;10.90;;;8.20;;
25567;SDS011;13455;51.480;7.594;2022-08-19T09:46:21;11.00;;;7.90;;
25567;SDS011;13455;51.480;7.594;2022-08-19T09:48:49;14.80;;;8.93;;
25567;SDS011;13455;51.480;7.594;2022-08-19T09:51:25;15.13;;;9.65;;
25567;SDS011;13455;51.480;7.594;2022-08-19T09:53:52;10.75;;;9.45;;
25567;SDS011;13455;51.480;7.594;2022-08-19T09:56:19;12.65;;;9.82;;
25567;SDS011;13455;51.480;7.594;2022-08-19T09:58:46;14.95;;;10.30;;
25567;SDS011;13455;51.480;7.594;2022-08-19T10:01:23;13.18;;;9.82;;
25567;SDS011;13455;51.480;7.594;2022-08-19T10:03:50;16.53;;;9.50;;
25567;SDS011;13455;51.480;7.594;2022-08-19T10:06:18;14.57;;;9.70;;
25567;SDS011;13455;51.480;7.594;2022-08-19T10:08:45;10.90;;;9.75;;
25567;SDS011;13455;51.480;7.594;2022-08-19T10:11:11;12.40;;;8.98;;
25567;SDS011;13455;51.480;7.594;2022-08-19T10:13:41;12.03;;;10.43;;
25567;SDS011;13455;51.480;7.594;2022-08-19T10:16:09;13.60;;;10.32;;
25567;SDS011;13455;51.480;7.594;2022-08-19T10:18:36;12.52;;;9.68;;
25567;SDS011;13455;51.480;7.594;2022-08-19T10:21:13;11.38;;;9.38;;
25567;SDS011;13455;51.480;7.594;2022-08-19T10:23:42;14.02;;;10.45;;
25567;SDS011;13455;51.480;7.594;2022-08-19T10:26:10;11.27;;;8.70;;
25567;SDS011;13455;51.480;7.594;2022-08-19T10:28:37;13.70;;;10.07;;
25567;SDS011;13455;51.480;7.594;2022-08-19T10:31:03;12.38;;;9.60;;
25567;SDS011;13455;51.480;7.594;2022-08-19T10:33:31;12.65;;;9.10;;
25567;SDS011;13455;51.480;7.594;2022-08-19T10:36:04;11.52;;;9.40;;
25567;SDS011;13455;51.480;7.594;2022-08-19T10:38:35;10.13;;;8.23;;
25567;SDS011;13455;51.480;7.594;2022-08-19T10:41:12;13.15;;;8.35;;
25567;SDS011;13455;51.480;7.594;2022-08-19T10:43:38;11.40;;;8.80;;
25567;SDS011;13455;51.480;7.594;2022-08-19T10:46:05;14.50;;;11.27;;
25567;SDS011;13455;51.480;7.594;2022-08-19T10:48:32;14.65;;;12.98;;
25567;SDS011;13455;51.480;7.594;2022-08-19T10:50:58;13.15;;;11.27;;
25567;SDS011;13455;51.480;7.594;2022-08-19T10:53:57;12.35;;;9.30;;
25567;SDS011;13455;51.480;7.594;2022-08-19T10:56:23;10.27;;;8.10;;
25567;SDS011;13455;51.480;7.594;2022-08-19T10:59:08;11.05;;;7.63;;
25567;SDS011;13455;51.480;7.594;2022-08-19T11:01:35;10.18;;;7.65;;
25567;SDS011;13455;51.480;7.594;2022-08-19T11:04:01;11.90;;;8.98;;
25567;SDS011;13455;51.480;7.594;2022-08-19T11:06:30;13.23;;;8.52;;
25567;SDS011;13455;51.480;7.594;2022-08-19T11:08:59;13.18;;;8.77;;
25567;SDS011;13455;51.480;7.594;2022-08-19T11:11:26;11.30;;;9.05;;
25567;SDS011;13455;51.480;7.594;2022-08-19T11:13:53;11.68;;;8.40;;
25567;SDS011;13455;51.480;7.594;2022-08-19T11:16:20;10.77;;;9.43;;
25567;SDS011;13455;51.480;7.594;2022-08-19T11:18:50;14.60;;;8.02;;
25567;SDS011;13455;51.480;7.594;2022-08-19T11:21:18;13.43;;;9.43;;
25567;SDS011;13455;51.480;7.594;2022-08-19T11:23:45;13.45;;;10.15;;
25567;SDS011;13455;51.480;7.594;2022-08-19T11:26:12;11.18;;;9.70;;
25567;SDS011;13455;51.480;7.594;2022-08-19T11:28:38;10.55;;;9.10;;
25567;SDS011;13455;51.480;7.594;2022-08-19T11:31:09;10.73;;;8.82;;
25567;SDS011;13455;51.480;7.594;2022-08-19T11:33:43;13.02;;;8.43;;
25567;SDS011;13455;51.480;7.594;2022-08-19T11:36:09;8.47;;;7.20;;
25567;SDS011;13455;51.480;7.594;2022-08-19T11:38:35;7.63;;;6.83;;
25567;SDS011;13455;51.480;7.594;2022-08-19T11:41:03;10.60;;;7.93;;
25567;SDS011;13455;51.480;7.594;2022-08-19T11:43:31;8.77;;;7.20;;
25567;SDS011;13455;51.480;7.594;2022-08-19T11:45:57;9.32;;;7.57;;
25567;SDS011;13455;51.480;7.594;2022-08-19T11:48:24;8.43;;;7.00;;
25567;SDS011;13455;51.480;7.594;2022-08-19T11:50:51;6.67;;;5.93;;
25567;SDS011;13455;51.480;7.594;2022-08-19T11:53:19;6.13;;;5.30;;
25567;SDS011;13455;51.480;7.594;2022-08-19T11:55:46;7.88;;;4.95;;
25567;SDS011;13455;51.480;7.594;2022-08-19T11:58:13;9.18;;;6.40;;
25567;SDS011;13455;51.480;7.594;2022-08-19T12:00:39;7.85;;;6.60;;
25567;SDS011;13455;51.480;7.594;2022-08-19T12:03:06;9.10;;;7.18;;
25567;SDS011;13455;51.480;7.594;2022-08-19T12:05:32;9.00;;;7.50;;
25567;SDS011;13455;51.480;7.594;2022-08-19T12:07:59;8.63;;;6.80;;
25567;SDS011;13455;51.480;7.594;2022-08-19T12:10:25;8.68;;;6.18;;
25567;SDS011;13455;51.480;7.594;2022-08-19T12:12:51;8.47;;;6.43;;
25567;SDS011;13455;51.480;7.594;2022-08-19T12:15:17;9.43;;;6.78;;
25567;SDS011;13455;51.480;7.594;2022-08-19T12:17:43;6.72;;;6.00;;
25567;SDS011;13455;51.480;7.594;2022-08-19T12:20:09;9.57;;;5.37;;
25567;SDS011;13455;51.480;7.594;2022-08-19T12:22:37;10.43;;;5.40;;
25567;SDS011;13455;51.480;7.594;2022-08-19T12:25:04;8.23;;;5.50;;
25567;SDS011;13455;51.480;7.594;2022-08-19T12:27:30;6.95;;;5.13;;
25567;SDS011;13455;51.480;7.594;2022-08-19T12:29:56;7.43;;;4.77;;
25567;SDS011;13455;51.480;7.594;2022-08-19T12:32:23;9.77;;;6.60;;
25567;SDS011;13455;51.480;7.594;2022-08-19T12:34:49;11.82;;;8.70;;
25567;SDS011;13455;51.480;7.594;2022-08-19T12:37:17;11.93;;;9.45;;
25567;SDS011;13455;51.480;7.594;2022-08-19T12:39:42;10.33;;;9.30;;
25567;SDS011;13455;51.480;7.594;2022-08-19T12:42:12;12.63;;;9.98;;
25567;SDS011;13455;51.480;7.594;2022-08-19T12:44:39;11.05;;;9.63;;
25567;SDS011;13455;51.480;7.594;2022-08-19T12:47:06;12.90;;;10.05;;
25567;SDS011;13455;51.480;7.594;2022-08-19T12:49:36;11.88;;;10.07;;
25567;SDS011;13455;51.480;7.594;2022-08-19T12:52:04;11.77;;;10.07;;
25567;SDS011;13455;51.480;7.594;2022-08-19T12:54:30;14.00;;;9.95;;
25567;SDS011;13455;51.480;7.594;2022-08-19T12:56:57;12.55;;;9.82;;
25567;SDS011;13455;51.480;7.594;2022-08-19T12:59:24;11.45;;;9.77;;
25567;SDS011;13455;51.480;7.594;2022-08-19T13:01:50;11.02;;;9.32;;
25567;SDS011;13455;51.480;7.594;2022-08-19T13:04:16;11.93;;;8.98;;
25567;SDS011;13455;51.480;7.594;2022-08-19T13:06:43;10.73;;;8.95;;
25567;SDS011;13455;51.480;7.594;2022-08-19T13:09:09;9.50;;;8.50;;
25567;SDS011;13455;51.480;7.594;2022-08-19T13:11:34;10.18;;;8.30;;
25567;SDS011;13455;51.480;7.594;2022-08-19T13:14:01;9.20;;;7.45;;
25567;SDS011;13455;51.480;7.594;2022-08-19T13:16:28;11.90;;;8.40;;
25567;SDS011;13455;51.480;7.594;2022-08-19T13:18:55;9.00;;;8.10;;
25567;SDS011;13455;51.480;7.594;2022-08-19T13:21:22;9.85;;;8.65;;
25567;SDS011;13455;51.480;7.594;2022-08-19T13:23:50;8.25;;;7.45;;
25567;SDS011;13455;51.480;7.594;2022-08-19T13:26:16;11.90;;;8.02;;
25567;SDS011;13455;51.480;7.594;2022-08-19T13:28:43;9.43;;;8.30;;
25567;SDS011;13455;51.480;7.594;2022-08-19T13:31:30;10.80;;;8.10;;
25567;SDS011;13455;51.480;7.594;2022-08-19T13:34:16;10.30;;;8.80;;
25567;SDS011;13455;51.480;7.594;2022-08-19T13:36:45;11.40;;;8.32;;
25567;SDS011;13455;51.480;7.594;2022-08-19T13:39:10;11.10;;;8.20;;
25567;SDS011;13455;51.480;7.594;2022-08-19T13:41:37;9.02;;;8.00;;
25567;SDS011;13455;51.480;7.594;2022-08-19T13:44:08;11.40;;;7.32;;
25567;SDS011;13455;51.480;7.594;2022-08-19T13:46:34;8.35;;;6.40;;
25567;SDS011;13455;51.480;7.594;2022-08-19T13:49:00;6.67;;;5.60;;
25567;SDS011;13455;51.480;7.594;2022-08-19T13:51:26;7.40;;;6.20;;
25567;SDS011;13455;51.480;7.594;2022-08-19T13:53:51;7.47;;;5.90;;
25567;SDS011;13455;51.480;7.594;2022-08-19T13:56:18;9.75;;;6.40;;
25567;SDS011;13455;51.480;7.594;2022-08-19T13:58:45;8.20;;;6.22;;
25567;SDS011;13455;51.480;7.594;2022-08-19T14:01:11;7.70;;;6.17;;
25567;SDS011;13455;51.480;7.594;2022-08-19T14:03:37;8.52;;;5.72;;
25567;SDS011;13455;51.480;7.594;2022-08-19T14:06:03;8.63;;;5.70;;
25567;SDS011;13455;51.480;7.594;2022-08-19T14:08:29;8.10;;;5.13;;
25567;SDS011;13455;51.480;7.594;2022-08-19T14:10:57;7.10;;;4.75;;
25567;SDS011;13455;51.480;7.594;2022-08-19T14:13:23;6.00;;;5.00;;
25567;SDS011;13455;51.480;7.594;2022-08-19T14:15:49;5.00;;;4.47;;
25567;SDS011;13455;51.480;7.594;2022-08-19T14:18:16;5.65;;;4.70;;
25567;SDS011;13455;51.480;7.594;2022-08-19T14:20:42;5.93;;;4.40;;
25567;SDS011;13455;51.480;7.594;2022-08-19T14:23:08;7.38;;;4.50;;
25567;SDS011;13455;51.480;7.594;2022-08-19T14:25:34;6.07;;;4.55;;
25567;SDS011;13455;51.480;7.594;2022-08-19T14:28:00;5.20;;;4.00;;
25567;SDS011;13455;51.480;7.594;2022-08-19T14:30:27;6.47;;;4.53;;
25567;SDS011;13455;51.480;7.594;2022-08-19T14:32:56;5.70;;;4.30;;
25567;SDS011;13455;51.480;7.594;2022-08-19T14:35:24;5.88;;;4.30;;
25567;SDS011;13455;51.480;7.594;2022-08-19T14:37:51;7.00;;;4.40;;
25567;SDS011;13455;51.480;7.594;2022-08-19T14:40:21;5.53;;;3.77;;
25567;SDS011;13455;51.480;7.594;2022-08-19T14:43:02;6.05;;;4.30;;
25567;SDS011;13455;51.480;7.594;2022-08-19T14:45:33;6.30;;;3.90;;
25567;SDS011;13455;51.480;7.594;2022-08-19T14:48:01;7.57;;;4.35;;
25567;SDS011;13455;51.480;7.594;2022-08-19T14:50:26;6.83;;;4.00;;
25567;SDS011;13455;51.480;7.594;2022-08-19T14:52:59;6.65;;;4.32;;
25567;SDS011;13455;51.480;7.594;2022-08-19T14:55:30;5.90;;;4.55;;